createdAt,value
2023-02-19T00:00:37.123Z,19.58
2023-02-19T00:03:23.844Z,19.27
2023-02-19T00:06:12.164Z,16.30
2023-02-19T00:08:59.120Z,16.17
2023-02-19T00:11:47.853Z,16.17
2023-02-19T00:14:34.725Z,16.13
2023-02-19T00:17:21.461Z,16.35
2023-02-19T00:20:08.985Z,16.30
2023-02-19T00:22:56.292Z,15.88
2023-02-19T00:25:42.750Z,16.48
2023-02-19T00:28:30.422Z,15.15
2023-02-19T00:31:19.934Z,14.82
2023-02-19T00:34:07.412Z,14.00
2023-02-19T00:36:53.952Z,15.40
2023-02-19T00:39:40.490Z,17.98
2023-02-19T00:42:28.527Z,15.45
2023-02-19T00:45:16.352Z,13.98
2023-02-19T00:48:03.219Z,12.30
2023-02-19T00:50:49.531Z,11.13
2023-02-19T00:53:36.230Z,11.45
2023-02-19T00:56:23.201Z,10.73
2023-02-19T00:59:10.402Z,9.13
2023-02-19T01:01:59.099Z,8.52
2023-02-19T01:04:46.022Z,11.10
2023-02-19T01:07:32.573Z,10.75
2023-02-19T01:10:19.344Z,8.65
2023-02-19T01:13:05.760Z,7.55
2023-02-19T01:15:52.557Z,6.93
2023-02-19T01:18:40.756Z,6.75
2023-02-19T01:21:29.755Z,7.78
2023-02-19T01:24:16.726Z,6.00
2023-02-19T01:27:03.429Z,6.25
2023-02-19T01:29:50.139Z,5.00
2023-02-19T01:32:37.137Z,5.63
2023-02-19T01:35:25.288Z,6.85
2023-02-19T01:38:11.762Z,6.72
2023-02-19T01:41:00.269Z,6.30
2023-02-19T01:44:02.565Z,5.70
2023-02-19T01:46:51.535Z,5.95
2023-02-19T01:49:41.458Z,5.95
2023-02-19T01:52:34.151Z,6.13
2023-02-19T01:55:21.574Z,6.40
2023-02-19T01:58:09.907Z,5.70
2023-02-19T02:00:58.774Z,6.10
2023-02-19T02:03:49.842Z,5.75
2023-02-19T02:06:42.761Z,6.32
2023-02-19T02:09:49.652Z,6.45
2023-02-19T02:12:36.026Z,5.95
2023-02-19T02:15:25.807Z,6.38
2023-02-19T02:18:20.910Z,5.50
2023-02-19T02:21:29.669Z,5.82
2023-02-19T02:24:38.239Z,5.35
2023-02-19T02:27:45.290Z,5.15
2023-02-19T02:30:40.686Z,6.05
2023-02-19T02:33:32.653Z,5.57
2023-02-19T02:36:24.665Z,5.78
2023-02-19T02:39:15.050Z,5.05
2023-02-19T02:42:19.270Z,4.90
2023-02-19T02:45:39.687Z,5.53
2023-02-19T02:48:38.409Z,4.72
2023-02-19T02:51:29.293Z,5.78
2023-02-19T02:54:51.064Z,5.25
2023-02-19T02:57:39.909Z,5.25
2023-02-19T03:00:48.917Z,5.30
2023-02-19T03:03:38.743Z,5.82
2023-02-19T03:06:30.335Z,5.38
2023-02-19T03:09:21.828Z,5.60
2023-02-19T03:12:31.719Z,5.80
2023-02-19T03:15:42.831Z,5.70
2023-02-19T03:18:52.188Z,5.47
2023-02-19T03:21:44.106Z,5.60
2023-02-19T03:24:54.437Z,5.60
2023-02-19T03:27:44.155Z,5.70
2023-02-19T03:30:35.415Z,5.35
2023-02-19T03:33:25.294Z,5.05
2023-02-19T03:36:15.642Z,5.35
2023-02-19T03:42:01.109Z,4.77
2023-02-19T03:44:54.283Z,5.20
2023-02-19T03:47:49.949Z,5.20
2023-02-19T03:50:45.800Z,6.10
2023-02-19T03:53:37.697Z,5.30
2023-02-19T03:56:34.198Z,5.05
2023-02-19T03:59:29.983Z,4.72
2023-02-19T04:02:22.952Z,4.57
2023-02-19T04:05:15.543Z,5.50
2023-02-19T04:08:08.805Z,4.93
2023-02-19T04:11:01.623Z,5.03
2023-02-19T04:14:00.506Z,6.10
2023-02-19T04:16:51.895Z,5.57
2023-02-19T04:19:41.422Z,5.43
2023-02-19T04:22:28.869Z,6.03
2023-02-19T04:25:15.783Z,5.00
2023-02-19T04:28:02.812Z,4.35
2023-02-19T04:30:50.898Z,5.65
2023-02-19T04:33:38.106Z,6.20
2023-02-19T04:36:24.592Z,5.13
2023-02-19T04:39:11.133Z,4.88
2023-02-19T04:41:57.888Z,4.45
2023-02-19T04:44:44.550Z,4.93
2023-02-19T04:47:34.078Z,4.78
2023-02-19T04:50:20.476Z,4.55
2023-02-19T04:53:07.094Z,4.90
2023-02-19T04:55:53.880Z,4.55
2023-02-19T04:58:40.745Z,4.82
2023-02-19T05:01:27.791Z,4.20
2023-02-19T05:04:15.818Z,4.30
2023-02-19T05:07:02.215Z,4.85
2023-02-19T05:09:48.957Z,4.47
2023-02-19T05:12:35.413Z,4.43
2023-02-19T05:15:21.905Z,4.38
2023-02-19T05:18:08.802Z,4.53
2023-02-19T05:20:59.294Z,4.70
2023-02-19T05:23:45.570Z,4.75
2023-02-19T05:26:32.074Z,4.07
2023-02-19T05:29:18.851Z,4.22
2023-02-19T05:32:05.352Z,3.83
2023-02-19T05:34:52.165Z,4.88
2023-02-19T05:37:39.894Z,4.28
2023-02-19T05:40:26.447Z,5.22
2023-02-19T05:43:13.756Z,4.13
2023-02-19T05:46:00.248Z,4.90
2023-02-19T05:48:47.328Z,5.13
2023-02-19T05:51:34.023Z,4.78
2023-02-19T05:54:22.155Z,5.13
2023-02-19T05:57:09.066Z,4.47
2023-02-19T05:59:55.470Z,4.72
2023-02-19T06:02:42.335Z,5.53
2023-02-19T06:05:28.984Z,5.72
2023-02-19T06:08:16.606Z,4.95
2023-02-19T06:11:04.731Z,5.13
2023-02-19T06:13:51.272Z,4.88
2023-02-19T06:16:37.755Z,5.80
2023-02-19T06:19:24.473Z,4.90
2023-02-19T06:22:11.344Z,5.30
2023-02-19T06:24:58.165Z,5.00
2023-02-19T06:27:46.218Z,4.80
2023-02-19T06:30:33.189Z,4.85
2023-02-19T06:33:19.591Z,5.25
2023-02-19T06:36:07.946Z,5.30
2023-02-19T06:38:54.579Z,5.88
2023-02-19T06:41:41.269Z,5.70
2023-02-19T06:44:28.994Z,5.90
2023-02-19T06:47:15.640Z,5.95
2023-02-19T06:50:02.350Z,6.32
2023-02-19T06:52:48.798Z,6.63
2023-02-19T06:55:35.402Z,9.32
2023-02-19T06:58:22.023Z,5.78
2023-02-19T07:01:13.045Z,6.75
2023-02-19T07:03:59.817Z,6.22
2023-02-19T07:06:46.520Z,6.50
2023-02-19T07:09:33.361Z,7.22
2023-02-19T07:12:19.833Z,6.80
2023-02-19T07:15:07.062Z,6.20
2023-02-19T07:17:55.023Z,6.55
2023-02-19T07:20:41.510Z,6.68
2023-02-19T07:23:28.160Z,6.18
2023-02-19T07:26:16.997Z,6.90
2023-02-19T07:29:03.620Z,6.65
2023-02-19T07:31:50.288Z,6.38
2023-02-19T07:34:38.148Z,7.32
2023-02-19T07:37:24.885Z,6.35
2023-02-19T07:40:11.763Z,6.43
2023-02-19T07:43:00.448Z,6.95
2023-02-19T07:45:47.288Z,7.10
2023-02-19T07:48:35.161Z,7.47
2023-02-19T07:51:23.551Z,8.35
2023-02-19T07:54:10.408Z,10.10
2023-02-19T07:56:56.994Z,6.40
2023-02-19T07:59:43.352Z,6.40
2023-02-19T08:02:47.881Z,6.55
2023-02-19T08:05:37.939Z,8.32
2023-02-19T08:08:25.719Z,6.47
2023-02-19T08:11:30.279Z,5.75
2023-02-19T08:14:17.009Z,4.72
2023-02-19T08:17:04.303Z,4.90
2023-02-19T08:19:51.341Z,5.20
2023-02-19T08:22:37.950Z,5.35
2023-02-19T08:25:25.843Z,7.03
2023-02-19T08:28:12.919Z,6.22
2023-02-19T08:31:02.010Z,6.18
2023-02-19T08:33:48.569Z,9.98
2023-02-19T08:36:35.422Z,7.47
2023-02-19T08:39:22.145Z,7.70
2023-02-19T08:42:10.178Z,7.93
2023-02-19T08:44:57.418Z,7.25
2023-02-19T08:47:44.775Z,7.15
2023-02-19T08:50:32.506Z,7.55
2023-02-19T08:53:19.570Z,13.18
2023-02-19T08:56:06.783Z,8.80
2023-02-19T08:58:54.875Z,7.07
2023-02-19T09:01:41.643Z,6.90
2023-02-19T09:04:28.375Z,6.70
2023-02-19T09:07:15.238Z,7.13
2023-02-19T09:10:02.248Z,7.43
2023-02-19T09:12:49.333Z,8.10
2023-02-19T09:15:38.525Z,7.78
2023-02-19T09:18:26.036Z,6.82
2023-02-19T09:21:12.780Z,7.28
2023-02-19T09:23:59.759Z,7.15
2023-02-19T09:26:46.638Z,6.18
2023-02-19T09:29:34.510Z,5.82
2023-02-19T09:32:22.695Z,8.15
2023-02-19T09:35:09.438Z,6.15
2023-02-19T09:37:55.843Z,6.00
2023-02-19T09:40:42.469Z,6.47
2023-02-19T09:43:29.967Z,5.57
2023-02-19T09:46:28.008Z,6.63
2023-02-19T09:49:18.096Z,6.53
2023-02-19T09:55:00.238Z,5.72
2023-02-19T09:57:48.117Z,6.20
2023-02-19T10:00:37.014Z,5.40
2023-02-19T10:03:30.858Z,5.88
2023-02-19T10:06:22.566Z,6.35
2023-02-19T10:09:22.638Z,5.03
2023-02-19T10:12:16.908Z,4.97
2023-02-19T10:15:10.780Z,5.40
2023-02-19T10:17:57.115Z,5.07
2023-02-19T10:20:43.974Z,5.35
2023-02-19T10:23:32.277Z,4.88
2023-02-19T10:26:20.051Z,11.20
2023-02-19T10:29:07.322Z,5.85
2023-02-19T10:32:21.008Z,4.80
2023-02-19T10:35:12.980Z,4.25
2023-02-19T10:37:59.477Z,4.35
2023-02-19T10:40:48.093Z,4.05
2023-02-19T10:43:39.915Z,3.72
2023-02-19T10:46:29.498Z,4.75
2023-02-19T10:49:24.790Z,3.35
2023-02-19T10:52:17.631Z,3.42
2023-02-19T10:55:17.068Z,4.50
2023-02-19T10:58:25.205Z,3.67
2023-02-19T11:01:20.669Z,3.30
2023-02-19T11:04:17.565Z,3.30
2023-02-19T11:07:10.040Z,3.88
2023-02-19T11:09:57.636Z,3.80
2023-02-19T11:12:49.139Z,2.50
2023-02-19T11:15:38.537Z,2.15
2023-02-19T11:18:27.860Z,2.17
2023-02-19T11:21:28.433Z,2.10
2023-02-19T11:27:19.846Z,2.00
2023-02-19T11:30:43.048Z,1.73
2023-02-19T11:33:31.185Z,1.80
2023-02-19T11:36:30.044Z,2.65
2023-02-19T11:39:24.665Z,2.50
2023-02-19T11:42:27.161Z,1.98
2023-02-19T11:45:23.542Z,1.70
2023-02-19T11:48:48.507Z,1.50
2023-02-19T11:51:56.670Z,1.42
2023-02-19T11:54:52.651Z,2.08
2023-02-19T11:57:44.228Z,2.22
2023-02-19T12:00:32.143Z,1.88
2023-02-19T12:03:33.053Z,1.92
2023-02-19T12:06:27.578Z,3.33
2023-02-19T12:09:34.636Z,2.50
2023-02-19T12:12:38.040Z,2.80
2023-02-19T12:15:45.133Z,2.88
2023-02-19T12:19:05.390Z,3.22
2023-02-19T12:22:30.439Z,3.00
2023-02-19T12:25:49.391Z,2.00
2023-02-19T12:28:52.649Z,2.80
2023-02-19T12:31:57.377Z,2.05
2023-02-19T12:35:09.334Z,2.30
2023-02-19T12:38:09.599Z,2.95
2023-02-19T12:41:13.363Z,2.65
2023-02-19T12:44:05.237Z,3.50
2023-02-19T12:46:55.604Z,3.58
2023-02-19T12:49:47.205Z,3.28
2023-02-19T12:52:40.246Z,2.92
2023-02-19T12:55:29.874Z,3.00
2023-02-19T12:58:30.927Z,3.38
2023-02-19T13:01:23.315Z,2.83
2023-02-19T13:04:19.298Z,2.85
2023-02-19T13:07:10.251Z,2.58
2023-02-19T13:10:01.496Z,2.33
2023-02-19T13:12:50.888Z,2.50
2023-02-19T13:15:42.883Z,2.70
2023-02-19T13:18:35.276Z,2.92
2023-02-19T13:21:43.182Z,3.10
2023-02-19T13:24:33.124Z,2.65
2023-02-19T13:27:48.864Z,3.05
2023-02-19T13:31:16.426Z,3.25
2023-02-19T13:34:10.625Z,3.20
2023-02-19T13:36:57.624Z,2.95
2023-02-19T13:39:48.669Z,2.63
2023-02-19T13:42:37.380Z,2.60
2023-02-19T13:45:31.661Z,2.33
2023-02-19T13:48:29.656Z,2.70
2023-02-19T13:51:49.512Z,2.63
2023-02-19T13:54:40.133Z,2.78
2023-02-19T13:57:29.534Z,2.55
2023-02-19T14:00:50.730Z,2.67
2023-02-19T14:03:54.257Z,2.70
2023-02-19T14:07:19.341Z,2.78
2023-02-19T14:10:12.698Z,2.20
2023-02-19T14:12:59.336Z,2.38
2023-02-19T14:15:51.246Z,2.60
2023-02-19T14:18:46.592Z,2.28
2023-02-19T14:21:39.459Z,2.78
2023-02-19T14:24:26.810Z,2.50
2023-02-19T14:27:13.867Z,2.65
2023-02-19T14:30:01.611Z,2.72
2023-02-19T14:32:54.503Z,3.30
2023-02-19T14:35:48.304Z,2.92
2023-02-19T14:38:40.296Z,3.13
2023-02-19T14:41:29.964Z,2.67
2023-02-19T14:44:21.016Z,2.85
2023-02-19T14:47:10.038Z,2.88
2023-02-19T14:50:02.011Z,2.42
2023-02-19T14:52:52.489Z,2.72
2023-02-19T14:55:42.846Z,3.33
2023-02-19T14:58:32.823Z,2.75
2023-02-19T15:01:29.226Z,3.00
2023-02-19T15:04:23.801Z,2.70
2023-02-19T15:07:16.381Z,2.85
2023-02-19T15:10:06.009Z,2.42
2023-02-19T15:12:56.976Z,2.05
2023-02-19T15:15:46.612Z,1.80
2023-02-19T15:18:36.525Z,1.42
2023-02-19T15:21:26.366Z,1.40
2023-02-19T15:24:14.694Z,1.45
2023-02-19T15:27:01.376Z,1.98
2023-02-19T15:29:53.472Z,1.38
2023-02-19T15:32:40.573Z,1.88
2023-02-19T15:35:28.852Z,1.70
2023-02-19T15:38:15.866Z,2.17
2023-02-19T15:41:02.824Z,1.60
2023-02-19T15:43:54.166Z,2.40
2023-02-19T15:46:43.928Z,1.60
2023-02-19T15:49:39.727Z,1.45
2023-02-19T15:52:34.239Z,1.85
2023-02-19T15:55:27.865Z,2.30
2023-02-19T15:58:21.457Z,2.10
2023-02-19T16:01:16.880Z,2.38
2023-02-19T16:04:07.799Z,2.30
2023-02-19T16:06:57.913Z,2.95
2023-02-19T16:09:44.826Z,3.30
2023-02-19T16:12:31.516Z,3.40
2023-02-19T16:15:21.298Z,3.22
2023-02-19T16:18:08.312Z,3.50
2023-02-19T16:20:57.202Z,5.25
2023-02-19T16:23:44.924Z,5.43
2023-02-19T16:26:32.526Z,6.97
2023-02-19T16:29:21.900Z,4.40
2023-02-19T16:32:17.499Z,4.35
2023-02-19T16:35:06.904Z,4.53
2023-02-19T16:38:01.250Z,4.75
2023-02-19T16:41:07.632Z,4.70
2023-02-19T16:43:54.242Z,4.88
2023-02-19T16:46:40.881Z,4.68
2023-02-19T16:49:27.695Z,4.32
2023-02-19T16:52:16.822Z,3.50
2023-02-19T16:55:12.703Z,2.60
2023-02-19T16:57:59.422Z,1.88
2023-02-19T17:00:46.045Z,1.30
2023-02-19T17:03:33.344Z,1.05
2023-02-19T17:06:19.961Z,1.80
2023-02-19T17:09:08.432Z,1.90
2023-02-19T17:11:56.495Z,0.90
2023-02-19T17:14:43.209Z,0.75
2023-02-19T17:17:29.737Z,1.02
2023-02-19T17:20:24.103Z,0.60
2023-02-19T17:23:10.578Z,0.90
2023-02-19T17:25:57.255Z,0.45
2023-02-19T17:28:45.304Z,0.60
2023-02-19T17:31:31.892Z,1.00
2023-02-19T17:34:18.581Z,1.00
2023-02-19T17:37:05.286Z,1.00
2023-02-19T17:39:51.830Z,1.30
2023-02-19T17:42:38.501Z,1.50
2023-02-19T17:45:26.382Z,1.00
2023-02-19T17:48:13.870Z,1.00
2023-02-19T17:51:00.717Z,1.52
2023-02-19T17:53:47.423Z,1.58
2023-02-19T17:56:34.196Z,1.40
2023-02-19T17:59:20.934Z,2.15
2023-02-19T18:02:09.030Z,1.58
2023-02-19T18:04:55.568Z,1.52
2023-02-19T18:07:42.417Z,1.30
2023-02-19T18:10:30.500Z,1.55
2023-02-19T18:13:17.414Z,1.67
2023-02-19T18:16:04.043Z,1.30
2023-02-19T18:18:52.232Z,12.88
2023-02-19T18:21:38.896Z,1.90
2023-02-19T18:24:25.495Z,1.95
2023-02-19T18:27:12.013Z,2.50
2023-02-19T18:29:58.647Z,1.70
2023-02-19T18:32:47.576Z,2.10
2023-02-19T18:35:35.218Z,2.10
2023-02-19T18:38:22.070Z,1.50
2023-02-19T18:41:12.830Z,1.30
2023-02-19T18:44:00.060Z,1.20
2023-02-19T18:46:46.621Z,1.30
2023-02-19T18:49:33.447Z,0.95
2023-02-19T18:52:24.767Z,1.60
2023-02-19T18:55:12.730Z,1.20
2023-02-19T18:57:59.712Z,1.27
2023-02-19T19:00:46.667Z,1.63
2023-02-19T19:03:33.423Z,1.60
2023-02-19T19:06:19.936Z,1.73
2023-02-19T19:09:08.014Z,1.45
2023-02-19T19:11:54.940Z,1.90
2023-02-19T19:14:41.885Z,1.83
2023-02-19T19:17:28.334Z,2.03
2023-02-19T19:20:20.393Z,9.50
2023-02-19T19:23:07.395Z,3.55
2023-02-19T19:25:55.692Z,2.67
2023-02-19T19:28:44.511Z,3.95
2023-02-19T19:31:36.309Z,2.85
2023-02-19T19:34:23.093Z,3.83
2023-02-19T19:37:09.952Z,4.68
2023-02-19T19:39:56.892Z,3.20
2023-02-19T19:42:44.876Z,3.20
2023-02-19T19:45:31.431Z,4.03
2023-02-19T19:48:18.150Z,4.00
2023-02-19T19:51:04.991Z,4.05
2023-02-19T19:53:51.849Z,3.35
2023-02-19T19:56:42.167Z,4.40
2023-02-19T19:59:29.877Z,4.00
2023-02-19T20:02:16.438Z,3.97
2023-02-19T20:05:03.033Z,5.20
2023-02-19T20:07:50.103Z,4.50
2023-02-19T20:10:36.765Z,4.07
2023-02-19T20:13:24.412Z,5.32
2023-02-19T20:16:14.454Z,4.60
2023-02-19T20:19:01.495Z,4.40
2023-02-19T20:21:49.767Z,5.40
2023-02-19T20:24:36.352Z,5.95
2023-02-19T20:27:23.972Z,5.03
2023-02-19T20:30:13.376Z,5.30
2023-02-19T20:33:01.679Z,5.68
2023-02-19T20:35:48.247Z,4.97
2023-02-19T20:38:34.881Z,5.40
2023-02-19T20:41:21.449Z,5.22
2023-02-19T20:44:08.036Z,5.20
2023-02-19T20:46:54.859Z,4.55
2023-02-19T20:49:46.105Z,5.53
2023-02-19T20:52:32.377Z,4.78
2023-02-19T20:55:19.288Z,4.43
2023-02-19T20:58:06.069Z,4.32
2023-02-19T21:00:53.510Z,4.03
2023-02-19T21:03:40.457Z,4.47
2023-02-19T21:06:28.068Z,4.28
2023-02-19T21:09:14.774Z,4.75
2023-02-19T21:12:01.409Z,4.25
2023-02-19T21:14:48.586Z,4.90
2023-02-19T21:17:35.183Z,4.68
2023-02-19T21:20:22.030Z,4.30
2023-02-19T21:23:10.012Z,5.65
2023-02-19T21:25:56.432Z,4.60
2023-02-19T21:28:43.058Z,4.53
2023-02-19T21:31:37.099Z,5.18
2023-02-19T21:34:25.250Z,4.88
2023-02-19T21:37:11.955Z,5.35
2023-02-19T21:40:00.514Z,4.60
2023-02-19T21:42:47.429Z,5.00
2023-02-19T21:45:34.090Z,5.22
2023-02-19T21:48:20.584Z,5.20
2023-02-19T21:51:07.421Z,5.15
2023-02-19T21:53:54.059Z,5.25
2023-02-19T21:56:41.830Z,6.03
2023-02-19T21:59:28.317Z,5.82
2023-02-19T22:02:14.982Z,5.95
2023-02-19T22:05:02.514Z,6.28
2023-02-19T22:07:50.086Z,6.80
2023-02-19T22:10:36.484Z,6.63
2023-02-19T22:13:24.294Z,6.28
2023-02-19T22:16:11.202Z,7.82
2023-02-19T22:18:59.492Z,7.90
2023-02-19T22:21:46.261Z,7.82
2023-02-19T22:24:32.880Z,8.40
2023-02-19T22:27:19.694Z,7.45
2023-02-19T22:30:09.146Z,7.68
2023-02-19T22:32:55.804Z,8.70
2023-02-19T22:35:42.839Z,9.05
2023-02-19T22:38:29.903Z,8.63
2023-02-19T22:41:17.586Z,9.85
2023-02-19T22:44:04.103Z,9.50
2023-02-19T22:46:53.563Z,9.10
2023-02-19T22:49:41.707Z,10.53
2023-02-19T22:52:29.181Z,11.00
2023-02-19T22:55:16.775Z,10.85
2023-02-19T22:58:03.024Z,11.90
2023-02-19T23:03:54.728Z,11.38
2023-02-19T23:06:43.818Z,10.93
2023-02-19T23:09:30.387Z,11.70
2023-02-19T23:12:16.949Z,11.23
2023-02-19T23:15:03.212Z,11.50
2023-02-19T23:17:49.832Z,10.45
2023-02-19T23:20:38.013Z,11.48
2023-02-19T23:23:24.366Z,10.15
2023-02-19T23:26:12.175Z,10.77
2023-02-19T23:28:59.289Z,11.55
2023-02-19T23:31:46.241Z,10.57
2023-02-19T23:34:32.875Z,11.95
2023-02-19T23:37:20.866Z,10.68
2023-02-19T23:40:08.559Z,10.80
2023-02-19T23:42:56.753Z,10.55
2023-02-19T23:45:42.936Z,10.93
2023-02-19T23:48:29.390Z,11.35
2023-02-19T23:51:15.889Z,10.82
2023-02-19T23:54:03.865Z,10.45
2023-02-19T23:56:50.204Z,11.30
2023-02-19T23:59:36.770Z,10.90
